createdAt,value
2017-04-11T00:00:18.953Z,7.20
2017-04-11T00:01:17.185Z,7.20
2017-04-11T00:02:15.410Z,7.20
2017-04-11T00:03:13.657Z,7.20
2017-04-11T00:04:11.881Z,7.10
2017-04-11T00:05:10.144Z,7.10
2017-04-11T00:06:08.393Z,7.10
2017-04-11T00:07:06.724Z,7.10
2017-04-11T00:08:04.954Z,7.10
2017-04-11T00:09:03.825Z,7.10
2017-04-11T00:10:02.058Z,7.00
2017-04-11T00:11:00.342Z,7.00
2017-04-11T00:11:58.617Z,7.00
2017-04-11T00:12:56.847Z,7.00
2017-04-11T00:13:55.089Z,7.00
2017-04-11T00:14:53.377Z,7.00
2017-04-11T00:15:51.637Z,6.90
2017-04-11T00:16:49.848Z,6.90
2017-04-11T00:17:48.096Z,6.90
2017-04-11T00:18:46.300Z,6.90
2017-04-11T00:19:44.562Z,6.90
2017-04-11T00:20:42.791Z,6.80
2017-04-11T00:21:41.837Z,6.80
2017-04-11T00:22:40.110Z,6.80
2017-04-11T00:23:38.368Z,6.80
2017-04-11T00:24:36.615Z,6.80
2017-04-11T00:25:34.849Z,6.80
2017-04-11T00:26:33.108Z,6.80
2017-04-11T00:27:31.329Z,6.80
2017-04-11T00:28:29.586Z,6.80
2017-04-11T00:29:27.837Z,6.80
2017-04-11T00:30:26.104Z,6.70
2017-04-11T00:31:24.409Z,6.70
2017-04-11T00:32:22.664Z,6.70
2017-04-11T00:33:20.893Z,6.70
2017-04-11T00:34:19.098Z,6.70
2017-04-11T00:35:17.492Z,6.70
2017-04-11T00:36:15.742Z,6.70
2017-04-11T00:37:14.556Z,6.70
2017-04-11T00:38:12.775Z,6.70
2017-04-11T00:39:11.011Z,6.70
2017-04-11T00:40:09.241Z,6.70
2017-04-11T00:41:07.465Z,6.70
2017-04-11T00:42:05.699Z,6.70
2017-04-11T00:43:03.928Z,6.70
2017-04-11T00:44:02.137Z,6.70
2017-04-11T00:45:00.393Z,6.70
2017-04-11T00:45:58.675Z,6.70
2017-04-11T00:46:56.992Z,6.70
2017-04-11T00:47:55.458Z,6.70
2017-04-11T00:48:53.735Z,6.70
2017-04-11T00:49:51.976Z,6.70
2017-04-11T00:50:50.272Z,6.60
2017-04-11T00:51:48.568Z,6.60
2017-04-11T00:52:47.048Z,6.60
2017-04-11T00:53:45.278Z,6.60
2017-04-11T00:54:43.542Z,6.60
2017-04-11T00:55:41.804Z,6.60
2017-04-11T00:56:40.037Z,6.60
2017-04-11T00:57:38.292Z,6.60
2017-04-11T00:58:37.217Z,6.60
2017-04-11T00:59:35.480Z,6.60
2017-04-11T01:00:33.788Z,6.60
2017-04-11T01:01:32.112Z,6.60
2017-04-11T01:02:30.491Z,6.50
2017-04-11T01:03:28.769Z,6.50
2017-04-11T01:04:27.080Z,6.50
2017-04-11T01:05:25.341Z,6.50
2017-04-11T01:06:23.619Z,6.50
2017-04-11T01:07:21.881Z,6.50
2017-04-11T01:08:20.788Z,6.50
2017-04-11T01:09:19.050Z,6.40
2017-04-11T01:10:17.296Z,6.40
2017-04-11T01:11:16.352Z,6.40
2017-04-11T01:12:14.602Z,6.40
2017-04-11T01:13:12.968Z,6.40
2017-04-11T01:14:11.237Z,6.40
2017-04-11T01:15:09.518Z,6.40
2017-04-11T01:16:07.797Z,6.40
2017-04-11T01:17:06.037Z,6.30
2017-04-11T01:18:04.365Z,6.30
2017-04-11T01:19:02.625Z,6.30
2017-04-11T01:20:00.865Z,6.30
2017-04-11T01:20:59.157Z,6.30
2017-04-11T01:21:57.441Z,6.30
2017-04-11T01:22:55.706Z,6.30
2017-04-11T01:23:53.944Z,6.30
2017-04-11T01:24:52.405Z,6.30
2017-04-11T01:25:50.709Z,6.30
2017-04-11T01:26:48.972Z,6.20
2017-04-11T01:27:47.273Z,6.20
2017-04-11T01:28:45.583Z,6.20
2017-04-11T01:29:43.873Z,6.20
2017-04-11T01:30:42.085Z,6.20
2017-04-11T01:31:40.360Z,6.20
2017-04-11T01:32:38.632Z,6.20
2017-04-11T01:33:36.950Z,6.20
2017-04-11T01:34:35.254Z,6.20
2017-04-11T01:35:33.524Z,6.20
2017-04-11T01:36:31.794Z,6.10
2017-04-11T01:37:30.120Z,6.10
2017-04-11T01:38:28.365Z,6.10
2017-04-11T01:39:27.377Z,6.10
2017-04-11T01:40:25.612Z,6.10
2017-04-11T01:41:23.870Z,6.10
2017-04-11T01:42:22.140Z,6.10
2017-04-11T01:43:20.401Z,6.10
2017-04-11T01:44:18.629Z,6.10
2017-04-11T01:45:16.899Z,6.10
2017-04-11T01:46:15.137Z,6.10
2017-04-11T01:47:13.386Z,6.10
2017-04-11T01:48:11.693Z,6.10
2017-04-11T01:49:09.960Z,6.10
2017-04-11T01:50:08.185Z,6.10
2017-04-11T01:51:06.450Z,6.10
2017-04-11T01:52:04.715Z,6.10
2017-04-11T01:53:02.949Z,6.10
2017-04-11T01:54:01.217Z,6.10
2017-04-11T01:54:59.459Z,6.10
2017-04-11T01:55:57.744Z,6.10
2017-04-11T01:56:56.009Z,6.10
2017-04-11T01:57:54.212Z,6.10
2017-04-11T01:58:52.412Z,6.10
2017-04-11T01:59:50.757Z,6.10
2017-04-11T02:00:49.009Z,6.10
2017-04-11T02:01:47.253Z,6.10
2017-04-11T02:02:45.501Z,6.10
2017-04-11T02:03:43.744Z,6.10
2017-04-11T02:04:42.077Z,6.10
2017-04-11T02:05:40.336Z,6.10
2017-04-11T02:06:38.680Z,6.10
2017-04-11T02:07:36.951Z,6.10
2017-04-11T02:08:35.261Z,6.10
2017-04-11T02:09:33.590Z,6.20
2017-04-11T02:10:31.857Z,6.20
2017-04-11T02:11:30.174Z,6.20
2017-04-11T02:12:28.506Z,6.20
2017-04-11T02:13:26.748Z,6.20
2017-04-11T02:14:25.264Z,6.20
2017-04-11T02:15:23.544Z,6.20
2017-04-11T02:16:21.827Z,6.20
2017-04-11T02:17:20.109Z,6.20
2017-04-11T02:18:18.401Z,6.20
2017-04-11T02:19:16.701Z,6.20
2017-04-11T02:20:15.017Z,6.20
2017-04-11T02:21:13.320Z,6.30
2017-04-11T02:22:11.581Z,6.20
2017-04-11T02:23:09.875Z,6.20
2017-04-11T02:24:08.145Z,6.20
2017-04-11T02:25:07.049Z,6.20
2017-04-11T02:26:05.352Z,6.20
2017-04-11T02:27:03.611Z,6.30
2017-04-11T02:28:01.912Z,6.30
2017-04-11T02:29:00.224Z,6.30
2017-04-11T02:29:58.526Z,6.30
2017-04-11T02:30:56.813Z,6.30
2017-04-11T02:31:55.124Z,6.30
2017-04-11T02:32:53.409Z,6.30
2017-04-11T02:33:51.688Z,6.30
2017-04-11T02:34:50.058Z,6.30
2017-04-11T02:35:48.361Z,6.30
2017-04-11T02:36:46.629Z,6.30
2017-04-11T02:37:44.943Z,6.30
2017-04-11T02:38:43.203Z,6.30
2017-04-11T02:39:41.479Z,6.30
2017-04-11T02:40:39.783Z,6.30
2017-04-11T02:41:38.096Z,6.30
2017-04-11T02:42:36.378Z,6.30
2017-04-11T02:43:34.655Z,6.30
2017-04-11T02:44:32.905Z,6.30
2017-04-11T02:45:31.221Z,6.30
2017-04-11T02:46:30.343Z,6.30
2017-04-11T02:47:29.098Z,6.30
2017-04-11T02:48:27.373Z,6.30
2017-04-11T02:49:25.651Z,6.30
2017-04-11T02:50:23.911Z,6.30
2017-04-11T02:51:22.202Z,6.30
2017-04-11T02:52:20.517Z,6.30
2017-04-11T02:53:18.772Z,6.20
2017-04-11T02:54:17.016Z,6.30
2017-04-11T02:55:15.272Z,6.20
2017-04-11T02:56:13.553Z,6.20
2017-04-11T02:57:11.828Z,6.20
2017-04-11T02:58:10.202Z,6.20
2017-04-11T02:59:08.584Z,6.20
2017-04-11T03:00:06.973Z,6.20
2017-04-11T03:01:05.402Z,6.20
2017-04-11T03:02:03.758Z,6.20
2017-04-11T03:03:02.052Z,6.20
2017-04-11T03:04:00.353Z,6.20
2017-04-11T03:04:58.768Z,6.20
2017-04-11T03:05:57.157Z,6.20
2017-04-11T03:06:55.721Z,6.30
2017-04-11T03:07:54.057Z,6.30
2017-04-11T03:08:52.332Z,6.30
2017-04-11T03:09:50.711Z,6.30
2017-04-11T03:10:49.039Z,6.30
2017-04-11T03:11:47.375Z,6.30
2017-04-11T03:12:45.706Z,6.30
2017-04-11T03:13:44.043Z,6.30
2017-04-11T03:14:42.380Z,6.30
2017-04-11T03:15:40.717Z,6.30
2017-04-11T03:16:39.010Z,6.30
2017-04-11T03:17:37.323Z,6.30
2017-04-11T03:18:35.690Z,6.30
2017-04-11T03:19:33.979Z,6.30
2017-04-11T03:20:32.271Z,6.30
2017-04-11T03:21:30.577Z,6.30
2017-04-11T03:22:28.925Z,6.30
2017-04-11T03:23:27.334Z,6.30
2017-04-11T03:24:25.773Z,6.30
2017-04-11T03:25:24.285Z,6.30
2017-04-11T03:26:22.635Z,6.30
2017-04-11T03:27:21.095Z,6.30
2017-04-11T03:28:19.454Z,6.30
2017-04-11T03:29:17.878Z,6.30
2017-04-11T03:30:16.316Z,6.30
2017-04-11T03:31:14.726Z,6.30
2017-04-11T03:32:13.113Z,6.30
2017-04-11T03:33:11.415Z,6.30
2017-04-11T03:34:09.732Z,6.30
2017-04-11T03:35:08.213Z,6.30
2017-04-11T03:36:06.660Z,6.30
2017-04-11T03:37:05.057Z,6.30
2017-04-11T03:38:03.375Z,6.30
2017-04-11T03:39:02.299Z,6.30
2017-04-11T03:40:00.734Z,6.30
2017-04-11T03:40:59.179Z,6.30
2017-04-11T03:41:57.602Z,6.30
2017-04-11T03:42:56.019Z,6.30
2017-04-11T03:43:54.391Z,6.30
2017-04-11T03:44:52.823Z,6.30
2017-04-11T03:45:51.225Z,6.30
2017-04-11T03:46:49.703Z,6.30
2017-04-11T03:47:48.153Z,6.30
2017-04-11T03:48:46.573Z,6.30
2017-04-11T03:49:44.963Z,6.30
2017-04-11T03:50:43.278Z,6.30
2017-04-11T03:51:41.638Z,6.30
2017-04-11T03:52:40.077Z,6.30
2017-04-11T03:53:38.517Z,6.30
2017-04-11T03:54:36.897Z,6.30
2017-04-11T03:55:35.202Z,6.30
2017-04-11T03:56:33.581Z,6.30
2017-04-11T03:57:32.626Z,6.30
2017-04-11T03:58:30.957Z,6.30
2017-04-11T03:59:29.320Z,6.30
2017-04-11T04:00:27.657Z,6.30
2017-04-11T04:01:26.031Z,6.30
2017-04-11T04:02:24.377Z,6.30
2017-04-11T04:03:22.801Z,6.30
2017-04-11T04:04:21.151Z,6.30
2017-04-11T04:05:19.496Z,6.30
2017-04-11T04:06:17.801Z,6.30
2017-04-11T04:07:17.029Z,6.30
2017-04-11T04:08:15.443Z,6.30
2017-04-11T04:09:13.974Z,6.30
2017-04-11T04:10:12.539Z,6.30
2017-04-11T04:11:10.918Z,6.30
2017-04-11T04:12:09.230Z,6.30
2017-04-11T04:13:07.506Z,6.30
2017-04-11T04:14:05.825Z,6.30
2017-04-11T04:15:04.136Z,6.30
2017-04-11T04:16:02.459Z,6.20
2017-04-11T04:17:00.777Z,6.20
2017-04-11T04:17:59.351Z,6.30
2017-04-11T04:18:57.653Z,6.20
2017-04-11T04:19:56.901Z,6.20
2017-04-11T04:20:55.219Z,6.20
2017-04-11T04:21:53.507Z,6.20
2017-04-11T04:22:51.836Z,6.20
2017-04-11T04:23:50.157Z,6.20
2017-04-11T04:24:48.452Z,6.20
2017-04-11T04:25:46.782Z,6.20
2017-04-11T04:26:45.225Z,6.20
2017-04-11T04:27:43.497Z,6.20
2017-04-11T04:28:41.813Z,6.10
2017-04-11T04:29:40.116Z,6.20
2017-04-11T04:30:38.553Z,6.10
2017-04-11T04:31:36.852Z,6.10
2017-04-11T04:32:35.153Z,6.10
2017-04-11T04:33:33.485Z,6.10
2017-04-11T04:34:31.877Z,6.10
2017-04-11T04:35:30.180Z,6.10
2017-04-11T04:36:28.488Z,6.10
2017-04-11T04:37:26.786Z,6.10
2017-04-11T04:38:25.087Z,6.10
2017-04-11T04:39:23.403Z,6.10
2017-04-11T04:40:21.701Z,6.10
2017-04-11T04:41:20.001Z,6.10
2017-04-11T04:42:18.345Z,6.10
2017-04-11T04:43:16.684Z,6.10
2017-04-11T04:44:15.016Z,6.10
2017-04-11T04:45:13.306Z,6.10
2017-04-11T04:46:11.589Z,6.10
2017-04-11T04:47:09.851Z,6.10
2017-04-11T04:48:08.093Z,6.10
2017-04-11T04:49:06.380Z,6.10
2017-04-11T04:50:04.653Z,6.10
2017-04-11T04:51:03.071Z,6.10
2017-04-11T04:52:01.562Z,6.10
2017-04-11T04:52:59.912Z,6.10
2017-04-11T04:53:58.202Z,6.10
2017-04-11T04:54:56.501Z,6.10
2017-04-11T04:55:54.785Z,6.10
2017-04-11T04:56:53.037Z,6.10
2017-04-11T04:57:51.795Z,6.10
2017-04-11T04:58:50.163Z,6.10
2017-04-11T04:59:48.438Z,6.10
2017-04-11T05:00:46.738Z,6.10
2017-04-11T05:01:45.045Z,6.10
2017-04-11T05:02:43.441Z,6.10
2017-04-11T05:03:41.757Z,6.10
2017-04-11T05:04:40.073Z,6.10
2017-04-11T05:05:38.521Z,6.10
2017-04-11T05:06:36.858Z,6.10
2017-04-11T05:07:35.149Z,6.20
2017-04-11T05:08:33.638Z,6.20
2017-04-11T05:09:31.929Z,6.20
2017-04-11T05:10:30.233Z,6.20
2017-04-11T05:11:28.518Z,6.20
2017-04-11T05:12:26.789Z,6.20
2017-04-11T05:13:25.089Z,6.20
2017-04-11T05:14:23.356Z,6.20
2017-04-11T05:15:21.659Z,6.30
2017-04-11T05:16:19.933Z,6.30
2017-04-11T05:17:18.213Z,6.30
2017-04-11T05:18:16.478Z,6.30
2017-04-11T05:19:14.766Z,6.30
2017-04-11T05:20:13.021Z,6.30
2017-04-11T05:21:11.313Z,6.40
2017-04-11T05:22:09.649Z,6.40
2017-04-11T05:23:08.001Z,6.40
2017-04-11T05:24:06.346Z,6.40
2017-04-11T05:25:04.646Z,6.50
2017-04-11T05:26:02.983Z,6.50
2017-04-11T05:27:01.280Z,6.50
2017-04-11T05:27:59.563Z,6.50
2017-04-11T05:28:57.813Z,6.50
2017-04-11T05:29:56.115Z,6.60
2017-04-11T05:30:54.420Z,6.60
2017-04-11T05:31:52.713Z,6.60
2017-04-11T05:32:50.985Z,6.60
2017-04-11T05:33:49.277Z,6.70
2017-04-11T05:34:47.573Z,6.70
2017-04-11T05:35:45.870Z,6.70
2017-04-11T05:36:44.150Z,6.70
2017-04-11T05:37:42.438Z,6.70
2017-04-11T05:38:40.708Z,6.80
2017-04-11T05:39:38.993Z,6.80
2017-04-11T05:40:37.267Z,6.80
2017-04-11T05:41:35.508Z,6.90
2017-04-11T05:42:33.781Z,6.90
2017-04-11T05:43:32.053Z,6.90
2017-04-11T05:44:30.332Z,7.00
2017-04-11T05:45:28.638Z,7.00
2017-04-11T05:46:26.911Z,7.00
2017-04-11T05:47:25.193Z,7.00
2017-04-11T05:48:23.496Z,7.10
2017-04-11T05:49:21.769Z,7.10
2017-04-11T05:50:20.113Z,7.10
2017-04-11T05:51:18.401Z,7.10
2017-04-11T05:52:16.665Z,7.20
2017-04-11T05:53:14.982Z,7.20
2017-04-11T05:54:13.308Z,7.20
2017-04-11T05:55:11.816Z,7.30
2017-04-11T05:56:10.364Z,7.30
2017-04-11T05:57:08.853Z,7.30
2017-04-11T05:58:10.156Z,7.30
2017-04-11T05:59:08.764Z,7.40
2017-04-11T06:00:07.572Z,7.40
2017-04-11T06:01:05.920Z,7.40
2017-04-11T06:02:04.442Z,7.50
2017-04-11T06:03:03.133Z,7.50
2017-04-11T06:04:01.522Z,7.50
2017-04-11T06:04:59.898Z,7.60
2017-04-11T06:05:58.177Z,7.60
2017-04-11T06:06:56.484Z,7.60
2017-04-11T06:07:54.809Z,7.60
2017-04-11T06:08:53.071Z,7.70
2017-04-11T06:09:51.319Z,7.70
2017-04-11T06:10:49.679Z,7.70
2017-04-11T06:11:47.977Z,7.80
2017-04-11T06:12:46.287Z,7.80
2017-04-11T06:13:44.566Z,7.80
2017-04-11T06:14:42.847Z,7.80
2017-04-11T06:15:41.139Z,7.90
2017-04-11T06:16:39.439Z,7.90
2017-04-11T06:17:37.706Z,7.90
2017-04-11T06:18:35.954Z,8.00
2017-04-11T06:19:34.269Z,8.00
2017-04-11T06:20:32.528Z,8.00
2017-04-11T06:21:30.838Z,8.10
2017-04-11T06:22:29.110Z,8.10
2017-04-11T06:23:27.389Z,8.10
2017-04-11T06:24:25.674Z,8.20
2017-04-11T06:25:23.977Z,8.20
2017-04-11T06:26:22.338Z,8.20
2017-04-11T06:27:20.605Z,8.20
2017-04-11T06:28:18.991Z,8.20
2017-04-11T06:29:17.357Z,8.30
2017-04-11T06:30:15.701Z,8.30
2017-04-11T06:31:14.116Z,8.40
2017-04-11T06:32:12.457Z,8.40
2017-04-11T06:33:10.818Z,8.40
2017-04-11T06:34:09.108Z,8.40
2017-04-11T06:35:07.385Z,8.40
2017-04-11T06:36:06.014Z,8.50
2017-04-11T06:37:04.337Z,8.50
2017-04-11T06:38:02.626Z,8.50
2017-04-11T06:39:00.896Z,8.50
2017-04-11T06:39:59.211Z,8.60
2017-04-11T06:40:57.518Z,8.60
2017-04-11T06:41:55.791Z,8.60
2017-04-11T06:42:54.098Z,8.60
2017-04-11T06:43:52.383Z,8.70
2017-04-11T06:44:50.660Z,8.70
2017-04-11T06:45:48.958Z,8.70
2017-04-11T06:46:47.260Z,8.70
2017-04-11T06:47:45.542Z,8.80
2017-04-11T06:48:43.898Z,8.80
2017-04-11T06:49:42.193Z,8.80
2017-04-11T06:50:40.466Z,8.80
2017-04-11T06:51:38.764Z,8.80
2017-04-11T06:52:37.205Z,8.90
2017-04-11T06:53:35.510Z,8.90
2017-04-11T06:54:33.957Z,8.90
2017-04-11T06:55:32.250Z,8.90
2017-04-11T06:56:30.538Z,8.90
2017-04-11T06:57:28.811Z,9.00
2017-04-11T06:58:27.072Z,9.00
2017-04-11T06:59:25.403Z,9.00
2017-04-11T07:00:23.784Z,9.00
2017-04-11T07:01:22.053Z,9.00
2017-04-11T07:02:20.421Z,9.00
2017-04-11T07:03:18.661Z,9.00
2017-04-11T07:04:18.890Z,9.00
2017-04-11T07:05:17.653Z,9.10
2017-04-11T07:06:16.128Z,9.10
2017-04-11T07:07:14.382Z,9.10
2017-04-11T07:08:14.635Z,9.10
2017-04-11T07:09:12.917Z,9.10
2017-04-11T07:10:11.296Z,9.20
2017-04-11T07:11:09.588Z,9.20
2017-04-11T07:12:07.940Z,9.20
2017-04-11T07:13:06.197Z,9.20
2017-04-11T07:14:04.497Z,9.30
2017-04-11T07:15:02.888Z,9.30
2017-04-11T07:16:01.159Z,9.30
2017-04-11T07:16:59.604Z,9.30
2017-04-11T07:17:57.934Z,9.30
2017-04-11T07:18:56.468Z,9.30
2017-04-11T07:19:55.201Z,9.30
2017-04-11T07:20:53.557Z,9.40
2017-04-11T07:21:51.813Z,9.40
2017-04-11T07:22:50.080Z,9.40
2017-04-11T07:23:48.349Z,9.40
2017-04-11T07:24:47.498Z,9.40
2017-04-11T07:25:45.974Z,9.40
2017-04-11T07:26:44.297Z,9.40
2017-04-11T07:27:42.625Z,9.40
2017-04-11T07:28:40.895Z,9.50
2017-04-11T07:29:39.204Z,9.50
2017-04-11T07:30:37.446Z,9.50
2017-04-11T07:31:35.764Z,9.50
2017-04-11T07:32:34.060Z,9.60
2017-04-11T07:33:32.484Z,9.60
2017-04-11T07:34:30.796Z,9.60
2017-04-11T07:35:29.148Z,9.60
2017-04-11T07:36:27.445Z,9.70
2017-04-11T07:37:25.697Z,9.70
2017-04-11T07:38:24.072Z,9.70
2017-04-11T07:39:22.359Z,9.80
2017-04-11T07:40:20.673Z,9.80
2017-04-11T07:41:18.965Z,9.80
2017-04-11T07:42:17.226Z,9.80
2017-04-11T07:43:15.544Z,9.90
2017-04-11T07:44:13.845Z,9.90
2017-04-11T07:45:12.176Z,9.90
2017-04-11T07:46:10.576Z,9.90
2017-04-11T07:47:08.864Z,9.90
2017-04-11T07:48:07.161Z,9.90
2017-04-11T07:49:05.479Z,10.00
2017-04-11T07:50:03.847Z,10.00
2017-04-11T07:51:02.144Z,10.00
2017-04-11T07:52:00.521Z,10.00
2017-04-11T07:52:58.870Z,10.00
2017-04-11T07:53:57.173Z,10.10
2017-04-11T07:54:55.517Z,10.10
2017-04-11T07:55:54.710Z,10.20
2017-04-11T07:56:53.006Z,10.20
2017-04-11T07:57:51.289Z,10.30
2017-04-11T07:58:53.636Z,10.30
2017-04-11T07:59:51.953Z,10.30
2017-04-11T08:00:50.319Z,10.40
2017-04-11T08:01:48.600Z,10.40
2017-04-11T08:02:46.951Z,10.50
2017-04-11T08:03:45.229Z,10.50
2017-04-11T08:04:43.517Z,10.60
2017-04-11T08:05:41.812Z,10.60
2017-04-11T08:06:40.159Z,10.60
2017-04-11T08:07:38.467Z,10.70
2017-04-11T08:08:36.746Z,10.70
2017-04-11T08:09:35.146Z,10.80
2017-04-11T08:10:33.493Z,10.70
2017-04-11T08:11:31.789Z,10.80
2017-04-11T08:12:30.226Z,10.90
2017-04-11T08:13:28.604Z,10.90
2017-04-11T08:14:26.913Z,10.90
2017-04-11T08:15:25.228Z,10.90
2017-04-11T08:16:23.533Z,10.90
2017-04-11T08:17:21.862Z,11.00
2017-04-11T08:18:20.196Z,11.00
2017-04-11T08:19:18.541Z,11.00
2017-04-11T08:20:16.872Z,11.10
2017-04-11T08:21:15.169Z,11.10
2017-04-11T08:22:13.537Z,11.10
2017-04-11T08:23:11.860Z,11.10
2017-04-11T08:24:10.217Z,11.20
2017-04-11T08:25:08.585Z,11.20
2017-04-11T08:26:06.910Z,11.20
2017-04-11T08:27:05.234Z,11.20
2017-04-11T08:28:03.639Z,11.30
2017-04-11T08:29:01.993Z,11.20
2017-04-11T08:30:00.312Z,11.20
2017-04-11T08:30:59.161Z,11.30
2017-04-11T08:31:57.572Z,11.30
2017-04-11T08:32:55.880Z,11.30
2017-04-11T08:33:54.222Z,11.30
2017-04-11T08:34:52.523Z,11.30
2017-04-11T08:35:50.844Z,11.40
2017-04-11T08:36:49.132Z,11.40
2017-04-11T08:37:47.506Z,11.40
2017-04-11T08:38:45.848Z,11.40
2017-04-11T08:39:44.244Z,11.40
2017-04-11T08:40:42.593Z,11.40
2017-04-11T08:41:41.040Z,11.50
2017-04-11T08:42:39.349Z,11.50
2017-04-11T08:43:37.690Z,11.40
2017-04-11T08:44:36.117Z,11.50
2017-04-11T08:45:34.469Z,11.50
2017-04-11T08:46:32.798Z,11.50
2017-04-11T08:47:31.460Z,11.50
2017-04-11T08:48:29.784Z,11.60
2017-04-11T08:49:28.172Z,11.70
2017-04-11T08:50:27.477Z,11.70
2017-04-11T08:51:25.814Z,11.80
2017-04-11T08:52:24.181Z,11.90
2017-04-11T08:53:22.482Z,12.00
2017-04-11T08:54:20.816Z,12.20
2017-04-11T08:55:19.126Z,12.30
2017-04-11T08:56:17.627Z,12.50
2017-04-11T08:57:15.970Z,12.60
2017-04-11T08:58:14.281Z,12.70
2017-04-11T08:59:12.631Z,12.80
2017-04-11T09:00:10.957Z,12.90
2017-04-11T09:01:09.277Z,13.00
2017-04-11T09:02:07.897Z,13.20
2017-04-11T09:03:06.254Z,13.30
2017-04-11T09:04:04.556Z,13.50
2017-04-11T09:05:02.904Z,13.70
2017-04-11T09:06:01.225Z,13.90
2017-04-11T09:06:59.542Z,14.20
2017-04-11T09:07:58.064Z,14.40
2017-04-11T09:08:56.493Z,14.60
2017-04-11T09:09:54.826Z,14.80
2017-04-11T09:10:53.255Z,14.90
2017-04-11T09:11:51.576Z,15.10
2017-04-11T09:12:49.869Z,15.30
2017-04-11T09:13:48.341Z,15.40
2017-04-11T09:14:46.677Z,15.60
2017-04-11T09:15:44.976Z,15.80
2017-04-11T09:16:43.351Z,15.90
2017-04-11T09:17:41.681Z,16.00
2017-04-11T09:18:39.966Z,16.20
2017-04-11T09:19:38.281Z,16.30
2017-04-11T09:20:36.617Z,16.30
2017-04-11T09:21:34.940Z,16.40
2017-04-11T09:22:34.274Z,16.50
2017-04-11T09:23:33.488Z,16.50
2017-04-11T09:24:31.921Z,16.50
2017-04-11T09:25:30.293Z,16.60
2017-04-11T09:26:28.632Z,16.70
2017-04-11T09:27:26.916Z,16.80
2017-04-11T09:28:25.216Z,16.90
2017-04-11T09:29:23.657Z,17.00
2017-04-11T09:30:21.957Z,17.10
2017-04-11T09:31:20.268Z,17.10
2017-04-11T09:32:18.615Z,17.20
2017-04-11T09:33:16.903Z,17.30
2017-04-11T09:34:15.202Z,17.30
2017-04-11T09:35:13.615Z,17.40
2017-04-11T09:36:11.934Z,17.50
2017-04-11T09:37:10.377Z,17.50
2017-04-11T09:38:08.836Z,17.60
2017-04-11T09:39:07.272Z,17.60
2017-04-11T09:40:05.739Z,17.70
2017-04-11T09:41:04.181Z,17.70
2017-04-11T09:42:02.459Z,17.70
2017-04-11T09:43:00.790Z,17.80
2017-04-11T09:43:59.152Z,17.80
2017-04-11T09:44:57.444Z,17.80
2017-04-11T09:45:55.728Z,17.80
2017-04-11T09:46:53.979Z,17.70
2017-04-11T09:47:52.450Z,17.70
2017-04-11T09:48:50.932Z,17.80
2017-04-11T09:49:49.255Z,17.80
2017-04-11T09:50:47.735Z,17.80
2017-04-11T09:51:46.042Z,17.90
2017-04-11T09:52:44.311Z,17.80
2017-04-11T09:53:42.625Z,17.80
2017-04-11T09:54:40.903Z,17.90
2017-04-11T09:55:39.213Z,17.80
2017-04-11T09:56:37.485Z,17.90
2017-04-11T09:57:35.801Z,17.90
2017-04-11T09:58:34.102Z,17.90
2017-04-11T09:59:32.616Z,17.90
2017-04-11T10:00:31.653Z,17.90
2017-04-11T10:01:30.167Z,17.80
2017-04-11T10:02:28.485Z,17.80
2017-04-11T10:03:26.922Z,17.80
2017-04-11T10:04:25.301Z,17.80
2017-04-11T10:05:23.709Z,17.80
2017-04-11T10:06:21.994Z,17.80
2017-04-11T10:07:20.337Z,17.70
2017-04-11T10:08:18.585Z,17.70
2017-04-11T10:09:16.842Z,17.70
2017-04-11T10:10:17.814Z,17.70
2017-04-11T10:11:16.261Z,17.70
2017-04-11T10:12:14.556Z,17.70
2017-04-11T10:13:12.909Z,17.60
2017-04-11T10:14:11.164Z,17.60
2017-04-11T10:15:09.433Z,17.50
2017-04-11T10:16:07.689Z,17.40
2017-04-11T10:17:05.965Z,17.40
2017-04-11T10:18:04.281Z,17.40
2017-04-11T10:19:02.608Z,17.30
2017-04-11T10:20:00.881Z,17.30
2017-04-11T10:20:59.137Z,17.30
2017-04-11T10:21:57.656Z,17.30
2017-04-11T10:22:55.936Z,17.30
2017-04-11T10:23:54.217Z,17.30
2017-04-11T10:24:52.489Z,17.10
2017-04-11T10:25:50.776Z,17.10
2017-04-11T10:26:49.053Z,17.10
2017-04-11T10:27:47.361Z,17.20
2017-04-11T10:28:45.748Z,17.20
2017-04-11T10:29:44.018Z,17.20
2017-04-11T10:30:42.341Z,17.30
2017-04-11T10:31:40.601Z,17.20
2017-04-11T10:32:38.914Z,17.20
2017-04-11T10:33:37.422Z,17.10
2017-04-11T10:34:36.015Z,17.10
2017-04-11T10:35:34.320Z,17.00
2017-04-11T10:36:32.661Z,17.00
2017-04-11T10:37:30.955Z,17.00
2017-04-11T10:38:29.528Z,16.90
2017-04-11T10:39:28.025Z,16.80
2017-04-11T10:40:26.284Z,16.70
2017-04-11T10:41:59.815Z,16.70
2017-04-11T10:42:58.090Z,16.70
2017-04-11T10:43:56.361Z,16.70
2017-04-11T10:44:54.701Z,16.70
2017-04-11T10:45:52.966Z,16.60
2017-04-11T10:46:51.271Z,16.60
2017-04-11T10:47:49.581Z,16.60
2017-04-11T10:48:47.906Z,16.60
2017-04-11T10:49:46.275Z,16.60
2017-04-11T10:50:44.863Z,16.50
2017-04-11T10:51:43.929Z,16.50
2017-04-11T10:52:42.600Z,16.50
2017-04-11T10:53:40.878Z,16.40
2017-04-11T10:54:39.146Z,16.40
2017-04-11T10:55:37.597Z,16.30
2017-04-11T10:56:35.874Z,16.20
2017-04-11T10:57:34.141Z,16.10
2017-04-11T10:58:32.406Z,16.00
2017-04-11T10:59:30.694Z,15.90
2017-04-11T11:00:29.034Z,15.90
2017-04-11T11:01:27.301Z,15.90
2017-04-11T11:02:25.646Z,15.90
2017-04-11T11:03:24.146Z,15.90
2017-04-11T11:04:22.441Z,15.80
2017-04-11T11:05:20.768Z,15.80
2017-04-11T11:06:19.094Z,15.70
2017-04-11T11:07:17.413Z,15.70
2017-04-11T11:08:16.649Z,15.60
2017-04-11T11:09:15.946Z,15.60
2017-04-11T11:10:14.210Z,15.50
2017-04-11T11:11:12.505Z,15.50
2017-04-11T11:12:10.791Z,15.60
2017-04-11T11:13:10.657Z,15.60
2017-04-11T11:14:08.950Z,15.60
2017-04-11T11:15:07.226Z,15.60
2017-04-11T11:16:06.435Z,15.60
2017-04-11T11:17:04.721Z,15.50
2017-04-11T11:18:03.004Z,15.50
2017-04-11T11:19:01.277Z,15.60
2017-04-11T11:19:59.621Z,15.60
2017-04-11T11:20:57.941Z,15.70
2017-04-11T11:21:56.290Z,15.70
2017-04-11T11:22:54.561Z,15.70
2017-04-11T11:23:53.558Z,15.70
2017-04-11T11:24:52.232Z,15.60
2017-04-11T11:25:50.488Z,15.60
2017-04-11T11:26:48.809Z,15.50
2017-04-11T11:27:47.132Z,15.40
2017-04-11T11:28:45.390Z,15.30
2017-04-11T11:29:43.706Z,15.30
2017-04-11T11:30:41.982Z,15.20
2017-04-11T11:31:40.217Z,15.30
2017-04-11T11:32:38.862Z,15.30
2017-04-11T11:33:37.481Z,15.40
2017-04-11T11:34:35.784Z,15.40
2017-04-11T11:35:34.081Z,15.50
2017-04-11T11:36:32.341Z,15.50
2017-04-11T11:37:30.684Z,15.50
2017-04-11T11:38:29.148Z,15.50
2017-04-11T11:39:27.417Z,15.40
2017-04-11T11:40:25.710Z,15.50
2017-04-11T11:41:23.975Z,15.40
2017-04-11T11:42:22.246Z,15.40
2017-04-11T11:43:20.540Z,15.40
2017-04-11T11:44:19.522Z,15.40
2017-04-11T11:45:18.544Z,15.50
2017-04-11T11:46:16.874Z,15.50
2017-04-11T11:47:16.245Z,15.60
2017-04-11T11:48:14.978Z,15.60
2017-04-11T11:49:14.086Z,15.60
2017-04-11T11:50:12.570Z,15.60
2017-04-11T11:51:12.119Z,15.70
2017-04-11T11:52:10.486Z,15.70
2017-04-11T11:53:09.271Z,15.70
2017-04-11T11:54:08.073Z,15.60
2017-04-11T11:55:07.074Z,15.60
2017-04-11T11:56:09.857Z,15.60
2017-04-11T11:57:08.548Z,15.50
2017-04-11T11:58:07.320Z,15.50
2017-04-11T11:59:05.744Z,15.50
2017-04-11T12:00:04.334Z,15.40
2017-04-11T12:01:03.068Z,15.40
2017-04-11T12:02:01.405Z,15.40
2017-04-11T12:02:59.770Z,15.30
2017-04-11T12:03:58.198Z,15.30
2017-04-11T12:04:56.621Z,15.20
2017-04-11T12:05:55.059Z,15.20
2017-04-11T12:06:53.454Z,15.30
2017-04-11T12:07:51.791Z,15.30
2017-04-11T12:08:50.407Z,15.40
2017-04-11T12:09:48.824Z,15.40
2017-04-11T12:10:47.242Z,15.40
2017-04-11T12:11:45.606Z,15.40
2017-04-11T12:12:43.930Z,15.40
2017-04-11T12:13:42.284Z,15.40
2017-04-11T12:14:40.741Z,15.40
2017-04-11T12:15:39.078Z,15.30
2017-04-11T12:16:37.397Z,15.40
2017-04-11T12:17:35.837Z,15.40
2017-04-11T12:18:34.273Z,15.30
2017-04-11T12:19:32.705Z,15.40
2017-04-11T12:20:31.862Z,15.40
2017-04-11T12:21:30.201Z,15.40
2017-04-11T12:22:28.610Z,15.40
2017-04-11T12:23:33.325Z,15.50
2017-04-11T12:24:31.593Z,15.50
2017-04-11T12:25:29.826Z,15.60
2017-04-11T12:26:28.478Z,15.60
2017-04-11T12:27:27.620Z,15.70
2017-04-11T12:28:25.872Z,15.70
2017-04-11T12:29:24.882Z,15.80
2017-04-11T12:30:23.157Z,15.80
2017-04-11T12:31:21.438Z,15.90
2017-04-11T12:32:19.714Z,15.90
2017-04-11T12:33:17.965Z,16.00
2017-04-11T12:34:16.217Z,16.00
2017-04-11T12:35:14.482Z,16.10
2017-04-11T12:36:12.733Z,16.10
2017-04-11T12:37:10.959Z,16.20
2017-04-11T12:38:09.576Z,16.30
2017-04-11T12:39:07.833Z,16.30
2017-04-11T12:40:06.853Z,16.30
2017-04-11T12:41:05.106Z,16.40
2017-04-11T12:42:03.400Z,16.50
2017-04-11T12:43:01.674Z,16.60
2017-04-11T12:43:59.970Z,16.70
2017-04-11T12:44:58.217Z,16.70
2017-04-11T12:45:56.479Z,16.70
2017-04-11T12:46:54.714Z,16.70
2017-04-11T12:47:52.965Z,16.80